createdAt,value
2022-11-02T01:15:43.597Z,53.70
2022-11-02T03:16:36.420Z,117.20
2022-11-02T03:43:42.592Z,123.50
2022-11-02T03:52:20.909Z,122.20
2022-11-02T04:25:51.679Z,73.10
2022-11-02T04:47:57.359Z,122.90
2022-11-02T06:09:49.393Z,109.10
2022-11-02T06:20:08.159Z,122.20
2022-11-02T06:42:11.632Z,86.60
2022-11-02T06:52:51.037Z,80.50
2022-11-02T07:03:09.993Z,74.40
2022-11-02T07:13:23.496Z,74.80
2022-11-02T07:23:29.794Z,74.80
2022-11-02T07:33:55.862Z,69.10
2022-11-02T07:44:24.822Z,61.20
2022-11-02T08:05:02.079Z,59.40
2022-11-02T08:15:07.999Z,55.50
2022-11-02T08:35:27.247Z,52.40
2022-11-02T08:46:25.301Z,47.80
2022-11-02T08:57:55.589Z,42.30
2022-11-02T09:08:35.274Z,46.20
2022-11-02T09:19:25.856Z,39.60
2022-11-02T09:53:57.000Z,43.90
2022-11-02T10:04:58.603Z,40.70
2022-11-02T10:15:56.392Z,44.90
2022-11-02T10:27:47.266Z,37.40
2022-11-02T10:39:41.445Z,41.50
2022-11-02T10:51:08.932Z,34.20
2022-11-02T11:02:27.765Z,31.70
2022-11-02T11:25:51.537Z,24.80
2022-11-02T11:48:18.410Z,25.40
2022-11-02T11:59:01.039Z,26.00
2022-11-02T12:32:56.802Z,25.50
2022-11-02T12:44:17.187Z,16.20
2022-11-02T13:07:02.099Z,23.00
2022-11-02T13:17:52.741Z,23.70
2022-11-02T13:29:00.090Z,21.70
2022-11-02T13:40:20.157Z,24.20
2022-11-02T14:03:06.869Z,25.60
2022-11-02T14:14:08.325Z,27.10
2022-11-02T14:25:08.450Z,28.50
2022-11-02T14:36:14.648Z,33.40
2022-11-02T14:46:33.393Z,30.30
2022-11-02T14:57:22.146Z,33.30
2022-11-02T15:07:44.510Z,32.10
2022-11-02T15:29:26.273Z,33.00
2022-11-02T15:41:00.389Z,28.00
2022-11-02T15:51:50.613Z,17.20
2022-11-02T16:02:41.881Z,39.80
2022-11-02T16:15:26.046Z,30.70
2022-11-02T16:24:54.015Z,39.60
2022-11-02T16:35:01.801Z,28.00
2022-11-02T16:46:02.287Z,32.00
2022-11-02T16:56:50.383Z,36.30
2022-11-02T17:07:27.710Z,34.30
2022-11-02T17:18:32.002Z,33.40
2022-11-02T17:28:44.657Z,28.50
2022-11-02T17:39:03.875Z,31.50
2022-11-02T17:49:30.701Z,32.70
2022-11-02T17:59:43.902Z,30.10
2022-11-02T18:21:08.363Z,22.10
2022-11-02T18:31:19.882Z,24.90
2022-11-02T18:41:47.528Z,24.20
2022-11-02T18:52:17.024Z,22.80
2022-11-02T19:36:46.624Z,20.70
2022-11-02T19:47:24.218Z,19.50
2022-11-02T19:57:38.671Z,20.90
2022-11-02T20:08:26.329Z,23.60
2022-11-02T20:31:39.629Z,25.80
2022-11-02T20:42:15.129Z,23.20
2022-11-02T20:53:12.839Z,24.60
2022-11-02T21:03:27.056Z,27.00
2022-11-02T21:47:04.568Z,24.40
2022-11-02T21:58:39.076Z,20.40
2022-11-02T22:09:53.666Z,25.90
2022-11-02T22:20:49.967Z,27.60
2022-11-02T22:32:12.512Z,24.20
2022-11-02T22:44:47.295Z,24.60
2022-11-02T23:05:00.080Z,20.10
2022-11-02T23:15:40.664Z,18.60
2022-11-02T23:37:02.435Z,13.80
2022-11-02T23:47:17.829Z,14.00
